createdAt,value
2018-04-10T00:01:17.258Z,15.44
2018-04-10T00:03:43.172Z,15.37
2018-04-10T00:06:09.097Z,15.21
2018-04-10T00:08:35.021Z,15.35
2018-04-10T00:11:00.940Z,15.18
2018-04-10T00:13:26.869Z,15.46
2018-04-10T00:15:52.819Z,15.51
2018-04-10T00:18:18.774Z,15.58
2018-04-10T00:20:44.696Z,15.52
2018-04-10T00:23:10.647Z,15.08
2018-04-10T00:25:36.595Z,15.05
2018-04-10T00:28:02.537Z,15.15
2018-04-10T00:30:28.511Z,15.30
2018-04-10T00:32:54.474Z,15.15
2018-04-10T00:35:20.425Z,15.09
2018-04-10T00:37:46.473Z,14.98
2018-04-10T00:40:12.447Z,15.01
2018-04-10T00:42:38.388Z,15.07
2018-04-10T00:45:04.352Z,14.94
2018-04-10T00:47:30.292Z,15.03
2018-04-10T00:49:56.234Z,14.74
2018-04-10T00:52:22.176Z,14.88
2018-04-10T00:54:48.118Z,14.79
2018-04-10T00:57:14.062Z,14.62
2018-04-10T00:59:40.050Z,14.76
2018-04-10T01:02:06.009Z,14.72
2018-04-10T01:04:32.025Z,14.91
2018-04-10T01:06:57.968Z,14.47
2018-04-10T01:09:23.884Z,14.48
2018-04-10T01:11:49.807Z,14.70
2018-04-10T01:14:15.732Z,14.74
2018-04-10T01:16:41.678Z,14.52
2018-04-10T01:19:07.615Z,14.64
2018-04-10T01:21:33.550Z,14.70
2018-04-10T01:23:59.490Z,14.79
2018-04-10T01:26:25.446Z,14.76
2018-04-10T01:28:51.406Z,14.80
2018-04-10T01:31:17.346Z,14.62
2018-04-10T01:33:43.290Z,14.65
2018-04-10T01:36:09.220Z,14.54
2018-04-10T01:38:35.159Z,14.77
2018-04-10T01:41:01.131Z,14.79
2018-04-10T01:43:27.096Z,14.55
2018-04-10T01:45:53.054Z,14.68
2018-04-10T01:48:19.008Z,14.35
2018-04-10T01:50:44.963Z,14.41
2018-04-10T01:53:10.885Z,14.44
2018-04-10T01:55:36.806Z,14.34
2018-04-10T01:58:02.745Z,14.06
2018-04-10T02:00:28.681Z,14.08
2018-04-10T02:02:54.646Z,14.22
2018-04-10T02:05:20.571Z,14.43
2018-04-10T02:07:46.519Z,14.40
2018-04-10T02:10:12.475Z,14.26
2018-04-10T02:12:38.397Z,13.82
2018-04-10T02:15:04.362Z,14.36
2018-04-10T02:17:30.347Z,14.32
2018-04-10T02:19:56.268Z,14.49
2018-04-10T02:22:22.215Z,14.27
2018-04-10T02:24:48.142Z,14.35
2018-04-10T02:27:14.100Z,14.13
2018-04-10T02:29:40.053Z,14.12
2018-04-10T02:32:05.981Z,14.04
2018-04-10T02:34:31.925Z,13.90
2018-04-10T02:36:57.851Z,14.19
2018-04-10T02:39:23.798Z,14.03
2018-04-10T02:41:49.755Z,14.34
2018-04-10T02:44:15.719Z,14.29
2018-04-10T02:46:41.673Z,14.20
2018-04-10T02:49:07.625Z,14.04
2018-04-10T02:51:33.573Z,14.25
2018-04-10T02:53:59.517Z,14.02
2018-04-10T02:56:25.452Z,14.01
2018-04-10T02:58:51.407Z,14.25
2018-04-10T03:01:17.327Z,14.56
2018-04-10T03:03:43.258Z,14.63
2018-04-10T03:06:09.201Z,14.39
2018-04-10T03:08:35.137Z,14.42
2018-04-10T03:11:01.123Z,14.47
2018-04-10T03:13:27.077Z,14.79
2018-04-10T03:15:53.019Z,14.83
2018-04-10T03:18:18.987Z,14.67
2018-04-10T03:20:44.985Z,14.72
2018-04-10T03:23:10.927Z,15.00
2018-04-10T03:25:36.855Z,14.85
2018-04-10T03:28:02.779Z,14.57
2018-04-10T03:30:28.697Z,14.34
2018-04-10T03:32:54.612Z,14.38
2018-04-10T03:35:20.553Z,14.49
2018-04-10T03:37:46.511Z,14.33
2018-04-10T03:40:12.512Z,14.42
2018-04-10T03:42:38.455Z,14.45
2018-04-10T03:45:04.441Z,14.22
2018-04-10T03:47:30.373Z,14.41
2018-04-10T03:49:56.322Z,14.67
2018-04-10T03:52:22.266Z,14.62
2018-04-10T03:54:48.208Z,14.67
2018-04-10T03:57:14.162Z,14.48
2018-04-10T03:59:40.114Z,14.44
2018-04-10T04:02:06.066Z,14.30
2018-04-10T04:04:31.984Z,14.44
2018-04-10T04:06:57.914Z,14.25
2018-04-10T04:09:23.855Z,14.51
2018-04-10T04:11:49.782Z,14.43
2018-04-10T04:14:15.716Z,14.71
2018-04-10T04:16:41.842Z,14.68
2018-04-10T04:19:07.792Z,14.75
2018-04-10T04:21:33.748Z,14.72
2018-04-10T04:23:59.676Z,14.53
2018-04-10T04:26:25.640Z,14.49
2018-04-10T04:28:51.582Z,14.77
2018-04-10T04:31:17.507Z,14.56
2018-04-10T04:33:43.456Z,14.62
2018-04-10T04:36:09.404Z,14.65
2018-04-10T04:38:35.372Z,14.73
2018-04-10T04:41:01.304Z,14.61
2018-04-10T04:43:27.248Z,14.47
2018-04-10T04:45:53.192Z,14.58
2018-04-10T04:48:19.155Z,14.75
2018-04-10T04:50:45.110Z,14.75
2018-04-10T04:53:11.064Z,14.59
2018-04-10T04:55:37.027Z,14.47
2018-04-10T04:58:02.956Z,14.71
2018-04-10T05:00:28.898Z,14.70
2018-04-10T05:02:54.840Z,14.56
2018-04-10T05:05:20.811Z,14.59
2018-04-10T05:07:46.762Z,14.64
2018-04-10T05:10:12.724Z,14.75
2018-04-10T05:12:38.654Z,14.86
2018-04-10T05:15:04.632Z,14.97
2018-04-10T05:17:30.572Z,15.06
2018-04-10T05:19:56.520Z,14.83
2018-04-10T05:22:22.487Z,14.93
2018-04-10T05:24:48.420Z,15.06
2018-04-10T05:27:14.368Z,15.36
2018-04-10T05:29:40.316Z,15.31
2018-04-10T05:32:06.399Z,15.28
2018-04-10T05:34:32.428Z,15.34
2018-04-10T05:36:58.376Z,15.57
2018-04-10T05:39:24.398Z,15.74
2018-04-10T05:41:50.352Z,15.68
2018-04-10T05:44:16.296Z,15.85
2018-04-10T05:46:42.238Z,16.03
2018-04-10T05:49:08.265Z,16.05
2018-04-10T05:51:34.282Z,16.18
2018-04-10T05:54:00.336Z,16.27
2018-04-10T05:56:26.324Z,16.45
2018-04-10T05:58:52.369Z,16.55
2018-04-10T06:01:18.408Z,16.68
2018-04-10T06:03:44.345Z,16.79
2018-04-10T06:06:10.300Z,16.92
2018-04-10T06:08:36.358Z,16.96
2018-04-10T06:11:02.412Z,16.98
2018-04-10T06:13:28.368Z,17.12
2018-04-10T06:15:54.327Z,17.22
2018-04-10T06:18:20.353Z,17.28
2018-04-10T06:20:46.298Z,17.49
2018-04-10T06:23:12.231Z,17.51
2018-04-10T06:25:38.183Z,17.57
2018-04-10T06:28:04.147Z,17.70
2018-04-10T06:30:30.136Z,17.75
2018-04-10T06:32:56.086Z,17.96
2018-04-10T06:35:22.032Z,18.08
2018-04-10T06:37:48.001Z,18.17
2018-04-10T06:40:13.926Z,18.21
2018-04-10T06:42:40.862Z,18.36
2018-04-10T06:45:06.814Z,18.43
2018-04-10T06:47:32.748Z,18.34
2018-04-10T06:49:58.760Z,18.46
2018-04-10T06:52:24.716Z,18.49
2018-04-10T06:54:50.656Z,18.61
2018-04-10T06:57:16.601Z,18.69
2018-04-10T06:59:42.574Z,18.71
2018-04-10T07:02:08.552Z,19.03
2018-04-10T07:04:34.480Z,18.96
2018-04-10T07:07:00.408Z,19.19
2018-04-10T07:09:26.333Z,19.25
2018-04-10T07:11:52.270Z,19.41
2018-04-10T07:14:18.214Z,19.62
2018-04-10T07:16:44.220Z,19.60
2018-04-10T07:19:10.225Z,19.67
2018-04-10T07:21:36.153Z,19.79
2018-04-10T07:24:02.093Z,19.91
2018-04-10T07:26:28.055Z,20.03
2018-04-10T07:28:54.009Z,20.12
2018-04-10T07:31:20.001Z,20.13
2018-04-10T07:33:46.030Z,20.27
2018-04-10T07:36:11.994Z,20.15
2018-04-10T07:38:37.933Z,20.11
2018-04-10T07:41:03.897Z,20.18
2018-04-10T07:43:29.872Z,20.44
2018-04-10T07:45:55.809Z,20.51
2018-04-10T07:48:21.755Z,20.54
2018-04-10T07:50:47.713Z,20.71
2018-04-10T07:53:13.680Z,20.43
2018-04-10T07:55:39.605Z,20.78
2018-04-10T07:58:05.557Z,20.83
2018-04-10T08:00:31.566Z,20.95
2018-04-10T08:02:57.520Z,21.00
2018-04-10T08:05:23.478Z,21.02
2018-04-10T08:07:49.436Z,21.22
2018-04-10T08:10:15.372Z,20.90
2018-04-10T08:12:41.335Z,20.84
2018-04-10T08:15:07.295Z,21.01
2018-04-10T08:17:33.267Z,20.83
2018-04-10T08:19:59.208Z,20.92
2018-04-10T08:22:25.145Z,20.91
2018-04-10T08:24:51.080Z,20.82
2018-04-10T08:27:17.034Z,20.71
2018-04-10T08:29:43.011Z,20.55
2018-04-10T08:32:09.021Z,20.28
2018-04-10T08:34:35.008Z,20.29
2018-04-10T08:37:01.044Z,20.24
2018-04-10T08:39:27.087Z,20.23
2018-04-10T08:41:53.108Z,20.11
2018-04-10T08:44:19.158Z,20.12
2018-04-10T08:46:45.137Z,20.08
2018-04-10T08:49:11.092Z,20.03
2018-04-10T08:51:37.025Z,20.12
2018-04-10T08:54:02.997Z,20.10
2018-04-10T08:56:29.028Z,20.06
2018-04-10T08:58:54.972Z,19.96
2018-04-10T09:01:20.893Z,19.96
2018-04-10T09:03:46.841Z,20.00
2018-04-10T09:06:12.827Z,20.04
2018-04-10T09:08:38.769Z,20.03
2018-04-10T09:11:04.783Z,20.09
2018-04-10T09:13:30.725Z,20.02
2018-04-10T09:15:56.666Z,19.97
2018-04-10T09:18:22.663Z,19.96
2018-04-10T09:20:48.613Z,19.90
2018-04-10T09:23:14.537Z,19.93
2018-04-10T09:25:40.481Z,19.89
2018-04-10T09:28:06.579Z,19.97
2018-04-10T09:30:32.535Z,19.87
2018-04-10T09:32:58.469Z,19.95
2018-04-10T09:35:24.539Z,19.96
2018-04-10T09:37:50.519Z,19.92
2018-04-10T09:40:16.469Z,19.99
2018-04-10T09:42:42.412Z,19.87
2018-04-10T09:45:08.348Z,19.87
2018-04-10T09:47:34.285Z,19.80
2018-04-10T09:50:01.287Z,19.81
2018-04-10T09:52:27.233Z,19.86
2018-04-10T09:54:53.160Z,19.85
2018-04-10T09:57:19.076Z,19.89
2018-04-10T09:59:45.052Z,19.90
2018-04-10T10:02:11.017Z,19.87
2018-04-10T10:04:36.980Z,19.80
2018-04-10T10:07:02.924Z,19.80
2018-04-10T10:09:28.863Z,19.87
2018-04-10T10:11:54.834Z,19.79
2018-04-10T10:14:20.778Z,19.85
2018-04-10T10:16:46.740Z,19.83
2018-04-10T10:19:12.682Z,19.83
2018-04-10T10:21:38.634Z,19.75
2018-04-10T10:24:04.571Z,19.73
2018-04-10T10:26:30.524Z,19.76
2018-04-10T10:28:56.460Z,19.76
2018-04-10T10:31:22.388Z,19.83
2018-04-10T10:33:48.354Z,19.82
2018-04-10T10:36:14.301Z,19.78
2018-04-10T10:38:40.304Z,19.74
2018-04-10T10:41:06.254Z,19.83
2018-04-10T10:43:32.209Z,19.97
2018-04-10T10:45:58.174Z,19.95
2018-04-10T10:48:24.125Z,19.93
2018-04-10T10:50:50.060Z,19.99
2018-04-10T10:53:15.994Z,20.02
2018-04-10T10:55:41.956Z,19.90
2018-04-10T11:00:40.263Z,19.95
2018-04-10T11:03:06.276Z,20.00
2018-04-10T11:05:32.211Z,20.11
2018-04-10T11:07:58.167Z,20.07
2018-04-10T11:10:24.159Z,20.03
2018-04-10T11:12:50.137Z,20.13
2018-04-10T11:15:16.091Z,20.19
2018-04-10T11:17:42.029Z,20.21
2018-04-10T11:20:07.963Z,20.16
2018-04-10T11:22:33.911Z,20.22
2018-04-10T11:24:59.837Z,20.24
2018-04-10T11:27:25.820Z,20.31
2018-04-10T11:29:51.853Z,20.29
2018-04-10T11:32:17.877Z,20.29
2018-04-10T11:34:43.817Z,20.43
2018-04-10T11:37:09.789Z,20.34
2018-04-10T11:39:35.754Z,20.40
2018-04-10T11:42:01.691Z,20.44
2018-04-10T11:44:27.642Z,20.39
2018-04-10T11:46:53.676Z,20.40
2018-04-10T11:49:19.621Z,20.37
2018-04-10T11:51:45.559Z,20.52
2018-04-10T11:54:11.522Z,20.44
2018-04-10T11:56:37.479Z,20.42
2018-04-10T11:59:03.440Z,20.43
2018-04-10T12:01:29.418Z,20.47
2018-04-10T12:03:55.407Z,20.45
2018-04-10T12:06:21.374Z,20.53
2018-04-10T12:08:47.389Z,20.47
2018-04-10T12:11:13.353Z,20.36
2018-04-10T12:13:39.319Z,20.49
2018-04-10T12:16:05.283Z,20.63
2018-04-10T12:18:31.199Z,20.44
2018-04-10T12:20:57.167Z,20.58
2018-04-10T12:23:23.135Z,20.41
2018-04-10T12:25:49.275Z,20.31
2018-04-10T12:28:15.247Z,20.36
2018-04-10T12:30:41.203Z,20.32
2018-04-10T12:33:07.183Z,20.23
2018-04-10T12:35:33.151Z,20.27
2018-04-10T12:37:59.097Z,20.33
2018-04-10T12:40:25.063Z,20.50
2018-04-10T12:42:51.017Z,20.47
2018-04-10T12:45:17.046Z,20.37
2018-04-10T12:47:42.992Z,20.40
2018-04-10T12:50:08.964Z,20.46
2018-04-10T12:52:34.915Z,20.48
2018-04-10T12:55:00.888Z,20.44
2018-04-10T12:57:26.858Z,20.42
2018-04-10T12:59:52.824Z,20.39
2018-04-10T13:02:18.838Z,20.44
2018-04-10T13:04:44.753Z,20.47
2018-04-10T13:07:10.744Z,20.57
2018-04-10T13:09:36.694Z,20.65
2018-04-10T13:12:02.634Z,20.57
2018-04-10T13:14:28.606Z,20.62
2018-04-10T13:16:54.641Z,20.51
2018-04-10T13:19:20.586Z,20.48
2018-04-10T13:21:46.542Z,20.57
2018-04-10T13:24:12.488Z,20.49
2018-04-10T13:26:38.476Z,20.50
2018-04-10T13:29:04.407Z,20.47
2018-04-10T13:31:30.374Z,20.58
2018-04-10T13:33:56.314Z,20.48
2018-04-10T13:36:22.267Z,20.43
2018-04-10T13:38:48.249Z,20.53
2018-04-10T13:41:14.209Z,20.53
2018-04-10T13:43:40.187Z,20.41
2018-04-10T13:46:06.157Z,20.71
2018-04-10T13:48:32.135Z,20.52
2018-04-10T13:50:58.104Z,20.62
2018-04-10T13:53:24.108Z,20.73
2018-04-10T13:55:50.096Z,20.58
2018-04-10T13:58:16.170Z,20.77
2018-04-10T14:00:42.165Z,20.57
2018-04-10T14:03:08.185Z,20.63
2018-04-10T14:05:35.230Z,20.62
2018-04-10T14:08:01.260Z,20.62
2018-04-10T14:10:27.281Z,20.67
2018-04-10T14:12:53.294Z,20.61
2018-04-10T14:15:19.349Z,20.72
2018-04-10T14:17:45.356Z,20.66
2018-04-10T14:20:11.417Z,20.64
2018-04-10T14:22:37.386Z,20.70
2018-04-10T14:25:03.444Z,20.72
2018-04-10T14:27:29.489Z,20.66
2018-04-10T14:29:55.561Z,20.67
2018-04-10T14:32:21.627Z,20.72
2018-04-10T14:34:47.704Z,20.67
2018-04-10T14:37:13.732Z,20.73
2018-04-10T14:39:39.789Z,20.84
2018-04-10T14:42:05.813Z,20.77
2018-04-10T14:44:31.847Z,20.68
2018-04-10T14:46:57.857Z,20.72
2018-04-10T14:49:23.967Z,20.71
2018-04-10T14:51:50.007Z,20.72
2018-04-10T14:54:16.042Z,20.80
2018-04-10T14:56:42.029Z,20.84
2018-04-10T14:59:08.076Z,20.85
2018-04-10T15:01:34.077Z,20.80
2018-04-10T15:04:00.113Z,20.83
2018-04-10T15:06:26.130Z,20.74
2018-04-10T15:08:52.158Z,20.72
2018-04-10T15:11:18.204Z,20.75
2018-04-10T15:13:44.210Z,20.76
2018-04-10T15:16:10.228Z,20.79
2018-04-10T15:18:36.253Z,20.74
2018-04-10T15:21:02.302Z,20.74
2018-04-10T15:23:28.310Z,20.73
2018-04-10T15:25:54.362Z,20.74
2018-04-10T15:28:20.334Z,20.79
2018-04-10T15:30:46.372Z,20.91
2018-04-10T15:33:12.415Z,20.82
2018-04-10T15:35:38.358Z,20.83
2018-04-10T15:38:04.314Z,20.79
2018-04-10T15:40:30.270Z,20.75
2018-04-10T15:42:56.254Z,20.72
2018-04-10T15:45:22.242Z,20.72
2018-04-10T15:47:48.216Z,20.63
2018-04-10T15:50:14.171Z,20.60
2018-04-10T15:52:40.134Z,20.56
2018-04-10T15:55:06.154Z,20.57
2018-04-10T15:57:32.102Z,20.57
2018-04-10T15:59:58.129Z,20.51
2018-04-10T16:02:24.208Z,20.46
2018-04-10T16:04:50.182Z,20.47
2018-04-10T16:07:16.138Z,20.42
2018-04-10T16:09:42.162Z,20.43
2018-04-10T16:12:08.145Z,20.40
2018-04-10T16:14:34.110Z,20.43
2018-04-10T16:17:00.093Z,20.41
2018-04-10T16:19:26.056Z,20.37
2018-04-10T16:21:52.008Z,20.41
2018-04-10T16:24:17.977Z,20.42
2018-04-10T16:26:44.011Z,20.41
2018-04-10T16:29:09.962Z,20.40
2018-04-10T16:31:35.922Z,20.39
2018-04-10T16:34:01.858Z,20.38
2018-04-10T16:36:27.800Z,20.36
2018-04-10T16:38:53.758Z,20.35
2018-04-10T16:41:19.754Z,20.35
2018-04-10T17:05:50.880Z,20.87
2018-04-10T17:08:16.820Z,20.80
2018-04-10T17:10:42.790Z,20.71
2018-04-10T17:13:08.720Z,20.68
2018-04-10T17:15:34.640Z,20.61
2018-04-10T17:18:00.568Z,20.55
2018-04-10T17:20:26.551Z,20.51
2018-04-10T17:22:52.508Z,20.48
2018-04-10T17:25:18.436Z,20.44
2018-04-10T17:27:44.408Z,20.41
2018-04-10T17:30:10.469Z,20.37
2018-04-10T17:32:36.399Z,20.32
2018-04-10T17:35:02.437Z,20.28
2018-04-10T17:37:28.405Z,20.24
2018-04-10T17:39:54.338Z,20.18
2018-04-10T17:42:20.353Z,20.14
2018-04-10T17:44:46.289Z,20.14
2018-04-10T17:47:12.273Z,20.13
2018-04-10T17:49:38.223Z,20.12
2018-04-10T17:52:04.227Z,20.08
2018-04-10T17:54:30.371Z,20.01
2018-04-10T17:56:56.326Z,20.02
2018-04-10T17:59:22.326Z,19.97
2018-04-10T18:01:48.309Z,19.95
2018-04-10T18:04:14.228Z,19.95
2018-04-10T18:06:40.193Z,19.90
2018-04-10T18:09:06.155Z,19.90
2018-04-10T18:11:32.136Z,19.89
2018-04-10T18:13:59.082Z,19.88
2018-04-10T18:16:25.032Z,19.80
2018-04-10T18:18:51.003Z,19.78
2018-04-10T18:21:16.951Z,19.72
2018-04-10T18:23:42.897Z,19.70
2018-04-10T18:26:08.830Z,19.66
2018-04-10T18:28:34.820Z,19.62
2018-04-10T18:31:00.791Z,19.68
2018-04-10T18:33:26.750Z,19.68
2018-04-10T18:35:52.702Z,19.65
2018-04-10T18:38:18.662Z,19.63
2018-04-10T18:40:44.615Z,19.56
2018-04-10T18:43:10.658Z,19.51
2018-04-10T18:45:36.616Z,19.47
2018-04-10T18:48:02.563Z,19.41
2018-04-10T18:50:28.530Z,19.33
2018-04-10T18:52:54.505Z,19.33
2018-04-10T18:55:20.490Z,19.31
2018-04-10T18:57:46.481Z,19.33
2018-04-10T19:00:12.475Z,19.26
2018-04-10T19:02:38.434Z,19.22
2018-04-10T19:05:04.395Z,19.17
2018-04-10T19:07:30.338Z,19.19
2018-04-10T19:09:56.310Z,19.23
2018-04-10T19:12:22.283Z,19.15
2018-04-10T19:14:48.249Z,19.05
2018-04-10T19:17:14.208Z,19.03
2018-04-10T19:19:40.156Z,18.93
2018-04-10T19:22:06.122Z,18.95
2018-04-10T19:24:32.092Z,18.91
2018-04-10T19:26:58.055Z,18.86
2018-04-10T19:29:23.996Z,18.83
2018-04-10T19:31:49.950Z,18.81
2018-04-10T19:34:15.920Z,18.70
2018-04-10T19:36:41.865Z,18.83
2018-04-10T19:39:07.838Z,18.78
2018-04-10T19:41:34.075Z,18.84
2018-04-10T19:44:00.015Z,18.86
2018-04-10T19:46:25.969Z,18.84
2018-04-10T19:48:51.917Z,18.80
2018-04-10T19:51:17.883Z,18.88
2018-04-10T19:53:43.816Z,18.85
2018-04-10T19:56:09.813Z,18.83
2018-04-10T19:58:35.788Z,18.70
2018-04-10T20:01:01.812Z,18.71
2018-04-10T20:03:27.787Z,18.72
2018-04-10T20:05:53.713Z,18.70
2018-04-10T20:08:19.691Z,18.68
2018-04-10T20:10:45.623Z,18.61
2018-04-10T20:13:11.574Z,18.58
2018-04-10T20:15:37.545Z,18.53
2018-04-10T20:18:03.532Z,18.53
2018-04-10T20:20:29.486Z,18.55
2018-04-10T20:22:55.476Z,18.35
2018-04-10T20:25:21.457Z,18.31
2018-04-10T20:27:47.410Z,18.20
2018-04-10T20:30:13.338Z,18.24
2018-04-10T20:32:39.303Z,18.09
2018-04-10T20:35:05.236Z,18.13
2018-04-10T20:37:33.277Z,18.05
2018-04-10T20:39:59.249Z,18.09
2018-04-10T20:42:25.201Z,18.12
2018-04-10T20:44:51.172Z,18.17
2018-04-10T20:47:17.107Z,18.18
2018-04-10T20:49:43.044Z,18.11
2018-04-10T20:52:08.969Z,18.04
2018-04-10T20:54:34.917Z,17.97
2018-04-10T20:57:00.862Z,18.01
2018-04-10T20:59:26.801Z,18.10
2018-04-10T21:01:52.737Z,18.08
2018-04-10T21:04:18.675Z,18.06
2018-04-10T21:06:44.645Z,17.94
2018-04-10T21:09:10.676Z,17.93
2018-04-10T21:11:36.609Z,17.91
2018-04-10T21:14:02.551Z,17.84
2018-04-10T21:16:28.483Z,17.83
2018-04-10T21:18:54.748Z,17.76
2018-04-10T21:21:20.705Z,17.57
2018-04-10T21:23:46.668Z,17.63
2018-04-10T21:26:12.628Z,17.46
2018-04-10T21:28:38.558Z,17.53
2018-04-10T21:31:04.506Z,17.55
2018-04-10T21:33:30.476Z,17.52
2018-04-10T21:35:56.404Z,17.51
2018-04-10T21:38:22.452Z,17.36
2018-04-10T21:40:48.407Z,17.35
2018-04-10T21:43:14.404Z,17.47
2018-04-10T21:45:40.312Z,17.45
2018-04-10T21:48:06.272Z,17.38
2018-04-10T21:50:32.222Z,17.02
2018-04-10T21:52:58.156Z,17.05
2018-04-10T21:55:24.108Z,16.72
2018-04-10T21:57:50.033Z,16.92
2018-04-10T22:00:16.119Z,16.71
2018-04-10T22:02:42.078Z,16.88
2018-04-10T22:05:08.071Z,16.69
2018-04-10T22:07:34.024Z,17.06
2018-04-10T22:09:59.962Z,17.13
2018-04-10T22:12:25.899Z,17.01
2018-04-10T22:14:51.829Z,17.01
2018-04-10T22:17:17.761Z,17.04
2018-04-10T22:19:43.721Z,16.98
2018-04-10T22:22:09.660Z,16.81
2018-04-10T22:24:35.619Z,16.55
2018-04-10T22:27:01.549Z,16.23
2018-04-10T22:29:27.512Z,16.34
2018-04-10T22:31:53.460Z,15.99
2018-04-10T22:34:19.373Z,16.12
2018-04-10T22:36:45.313Z,15.92
2018-04-10T22:39:11.279Z,15.75
2018-04-10T22:41:37.239Z,16.35
2018-04-10T22:44:03.170Z,16.09
2018-04-10T22:46:29.136Z,16.00
2018-04-10T22:48:55.083Z,15.97
2018-04-10T22:51:21.004Z,16.09
2018-04-10T22:53:46.974Z,16.31
2018-04-10T22:56:12.900Z,16.52
2018-04-10T22:58:38.861Z,16.53
2018-04-10T23:01:04.813Z,16.51
2018-04-10T23:03:30.823Z,16.38
2018-04-10T23:05:56.733Z,16.29
2018-04-10T23:08:22.727Z,16.32
2018-04-10T23:10:48.682Z,16.32
2018-04-10T23:13:14.659Z,16.30
2018-04-10T23:15:40.647Z,16.41
2018-04-10T23:18:06.588Z,16.17
2018-04-10T23:20:32.522Z,16.40
2018-04-10T23:22:58.461Z,16.36
2018-04-10T23:25:24.411Z,15.79
2018-04-10T23:27:50.377Z,15.99
2018-04-10T23:30:16.314Z,15.81
2018-04-10T23:32:42.276Z,15.86
2018-04-10T23:35:08.236Z,16.17
2018-04-10T23:37:34.168Z,16.01
2018-04-10T23:40:00.116Z,16.23
2018-04-10T23:42:26.117Z,15.76
2018-04-10T23:44:52.066Z,15.91
2018-04-10T23:47:18.024Z,15.61
2018-04-10T23:49:43.964Z,15.55
2018-04-10T23:52:09.911Z,15.48
2018-04-10T23:54:35.874Z,15.75
2018-04-10T23:57:01.809Z,15.65
2018-04-10T23:59:27.732Z,15.78
